createdAt,value
2018-08-10T00:01:45.379Z,2.22
2018-08-10T00:05:10.750Z,1.87
2018-08-10T00:08:35.250Z,1.55
2018-08-10T00:11:59.850Z,2.52
2018-08-10T00:15:24.439Z,1.52
2018-08-10T00:18:48.846Z,2.92
2018-08-10T00:22:13.330Z,2.17
2018-08-10T00:25:37.869Z,2.35
2018-08-10T00:29:02.690Z,1.85
2018-08-10T00:32:27.188Z,2.10
2018-08-10T00:35:51.631Z,3.17
2018-08-10T00:39:16.056Z,2.33
2018-08-10T00:42:41.127Z,1.87
2018-08-10T00:46:05.778Z,1.92
2018-08-10T00:49:30.336Z,2.05
2018-08-10T00:52:54.804Z,2.27
2018-08-10T00:56:19.296Z,2.52
2018-08-10T00:59:43.774Z,2.42
2018-08-10T01:03:08.234Z,3.02
2018-08-10T01:06:32.711Z,3.15
2018-08-10T01:09:57.113Z,2.60
2018-08-10T01:13:21.624Z,3.22
2018-08-10T01:16:46.028Z,4.75
2018-08-10T01:20:18.143Z,5.47
2018-08-10T01:23:42.557Z,6.17
2018-08-10T01:27:11.232Z,6.62
2018-08-10T01:30:36.392Z,6.78
2018-08-10T01:34:00.761Z,6.80
2018-08-10T01:37:25.181Z,5.87
2018-08-10T01:40:49.643Z,5.12
2018-08-10T01:44:14.077Z,5.70
2018-08-10T01:47:38.556Z,6.00
2018-08-10T01:51:02.994Z,5.95
2018-08-10T01:54:27.406Z,6.42
2018-08-10T01:57:51.855Z,6.30
2018-08-10T02:01:16.289Z,6.67
2018-08-10T02:04:40.708Z,6.10
2018-08-10T02:08:05.167Z,5.67
2018-08-10T02:11:29.564Z,5.47
2018-08-10T02:14:53.983Z,5.10
2018-08-10T02:18:18.418Z,5.35
2018-08-10T02:21:42.888Z,5.50
2018-08-10T02:25:09.029Z,4.40
2018-08-10T02:28:33.490Z,4.30
2018-08-10T02:31:57.927Z,4.30
2018-08-10T02:35:22.384Z,3.60
2018-08-10T02:38:46.799Z,3.37
2018-08-10T02:42:11.213Z,4.17
2018-08-10T02:45:35.690Z,3.57
2018-08-10T02:49:00.085Z,4.40
2018-08-10T02:52:24.827Z,3.60
2018-08-10T02:55:49.267Z,4.23
2018-08-10T02:59:13.734Z,4.83
2018-08-10T03:02:38.165Z,4.83
2018-08-10T03:06:02.620Z,5.50
2018-08-10T03:09:27.113Z,5.80
2018-08-10T03:12:51.553Z,5.60
2018-08-10T03:16:15.964Z,7.20
2018-08-10T03:19:40.410Z,7.00
2018-08-10T03:23:04.882Z,6.80
2018-08-10T03:26:29.333Z,6.93
2018-08-10T03:29:53.765Z,7.83
2018-08-10T03:33:18.232Z,7.13
2018-08-10T03:36:42.778Z,7.80
2018-08-10T03:40:11.092Z,7.00
2018-08-10T03:43:35.515Z,7.07
2018-08-10T03:46:59.925Z,8.07
2018-08-10T03:50:24.365Z,7.10
2018-08-10T03:53:48.811Z,7.10
2018-08-10T03:57:13.264Z,7.87
2018-08-10T04:00:37.720Z,7.07
2018-08-10T04:04:02.318Z,7.30
2018-08-10T04:07:26.772Z,7.57
2018-08-10T04:10:51.225Z,10.90
2018-08-10T04:14:15.660Z,7.93
2018-08-10T04:17:40.069Z,8.37
2018-08-10T04:21:04.570Z,9.07
2018-08-10T04:24:29.060Z,8.93
2018-08-10T04:27:53.557Z,7.20
2018-08-10T04:31:18.049Z,7.87
2018-08-10T04:34:42.533Z,7.77
2018-08-10T04:38:07.113Z,9.40
2018-08-10T04:41:31.557Z,10.20
2018-08-10T04:44:56.043Z,9.93
2018-08-10T04:48:20.531Z,9.97
2018-08-10T04:51:44.956Z,8.33
2018-08-10T04:55:09.464Z,8.60
2018-08-10T04:58:33.873Z,9.07
2018-08-10T05:01:58.345Z,9.10
2018-08-10T05:05:22.796Z,8.37
2018-08-10T05:08:47.225Z,8.50
2018-08-10T05:12:11.644Z,9.33
2018-08-10T05:15:36.130Z,9.67
2018-08-10T05:19:00.533Z,8.87
2018-08-10T05:22:24.986Z,8.73
2018-08-10T05:25:49.457Z,8.77
2018-08-10T05:29:13.915Z,9.67
2018-08-10T05:32:38.344Z,10.93
2018-08-10T05:36:02.805Z,7.92
2018-08-10T05:39:27.264Z,10.15
2018-08-10T05:42:51.702Z,9.37
2018-08-10T05:46:16.225Z,8.20
2018-08-10T05:49:40.591Z,9.70
2018-08-10T05:53:05.041Z,7.97
2018-08-10T05:56:29.478Z,7.67
2018-08-10T05:59:53.905Z,9.25
2018-08-10T06:03:18.367Z,7.55
2018-08-10T06:06:42.776Z,7.55
2018-08-10T06:10:09.109Z,6.62
2018-08-10T06:13:33.626Z,7.80
2018-08-10T06:16:58.135Z,6.90
2018-08-10T06:20:22.545Z,6.35
2018-08-10T06:23:46.977Z,6.95
2018-08-10T06:27:11.497Z,8.20
2018-08-10T06:30:35.939Z,5.47
2018-08-10T06:34:00.445Z,6.30
2018-08-10T06:37:24.789Z,5.12
2018-08-10T06:40:49.179Z,6.15
2018-08-10T06:44:13.596Z,5.62
2018-08-10T06:47:38.521Z,4.47
2018-08-10T06:51:02.981Z,4.58
2018-08-10T06:54:27.424Z,6.10
2018-08-10T06:57:51.797Z,5.40
2018-08-10T07:01:16.181Z,5.80
2018-08-10T07:04:40.635Z,4.85
2018-08-10T07:08:05.040Z,4.70
2018-08-10T07:11:29.445Z,4.45
2018-08-10T07:14:53.888Z,4.33
2018-08-10T07:18:18.375Z,4.20
2018-08-10T07:21:42.830Z,3.00
2018-08-10T07:25:07.897Z,4.37
2018-08-10T07:28:32.304Z,3.52
2018-08-10T07:31:56.786Z,4.28
2018-08-10T07:35:21.220Z,3.58
2018-08-10T07:38:45.644Z,4.08
2018-08-10T07:42:10.078Z,3.83
2018-08-10T07:45:34.523Z,3.62
2018-08-10T07:48:59.142Z,3.52
2018-08-10T07:52:24.115Z,3.85
2018-08-10T07:55:48.584Z,3.62
2018-08-10T07:59:13.085Z,3.30
2018-08-10T08:02:37.886Z,3.92
2018-08-10T08:06:02.325Z,3.65
2018-08-10T08:09:26.804Z,4.47
2018-08-10T08:12:51.326Z,4.35
2018-08-10T08:16:15.783Z,3.33
2018-08-10T08:19:40.349Z,2.95
2018-08-10T08:23:05.700Z,2.77
2018-08-10T08:26:30.292Z,3.02
2018-08-10T08:29:54.781Z,2.87
2018-08-10T08:33:19.338Z,3.55
2018-08-10T08:36:43.841Z,2.70
2018-08-10T08:40:16.681Z,2.80
2018-08-10T08:46:04.660Z,2.87
2018-08-10T08:49:29.061Z,2.50
2018-08-10T08:52:53.546Z,2.30
2018-08-10T08:56:19.505Z,2.77
2018-08-10T08:59:43.992Z,2.62
2018-08-10T09:03:19.263Z,2.80
2018-08-10T09:06:43.716Z,2.10
2018-08-10T09:10:15.632Z,2.00
2018-08-10T09:14:54.503Z,2.15
2018-08-10T09:18:19.041Z,2.17
2018-08-10T09:21:42.480Z,2.20
2018-08-10T09:25:12.005Z,2.45
2018-08-10T09:28:36.426Z,3.00
2018-08-10T09:32:00.859Z,1.90
2018-08-10T09:35:25.369Z,1.52
2018-08-10T09:38:49.786Z,2.00
2018-08-10T09:42:14.304Z,2.17
2018-08-10T09:45:38.723Z,2.55
2018-08-10T09:49:03.122Z,1.75
2018-08-10T09:52:27.604Z,2.20
2018-08-10T09:55:52.082Z,2.15
2018-08-10T09:59:16.520Z,1.55
2018-08-10T10:02:45.047Z,1.98
2018-08-10T10:06:09.537Z,1.87
2018-08-10T10:09:33.999Z,2.75
2018-08-10T10:12:58.750Z,1.90
2018-08-10T10:16:23.206Z,2.00
2018-08-10T10:19:47.660Z,1.65
2018-08-10T10:23:12.193Z,1.80
2018-08-10T10:26:36.634Z,1.57
2018-08-10T10:30:01.136Z,2.02
2018-08-10T10:33:26.995Z,1.57
2018-08-10T10:36:51.518Z,1.70
2018-08-10T10:40:15.900Z,2.37
2018-08-10T10:43:40.305Z,1.67
2018-08-10T10:47:04.823Z,2.30
2018-08-10T10:50:29.283Z,1.55
2018-08-10T10:53:53.709Z,1.52
2018-08-10T10:57:18.274Z,1.45
2018-08-10T11:00:42.792Z,1.65
2018-08-10T11:04:07.274Z,2.37
2018-08-10T11:07:31.751Z,2.25
2018-08-10T11:10:56.146Z,1.72
2018-08-10T11:14:20.650Z,1.85
2018-08-10T11:17:45.060Z,2.15
2018-08-10T11:21:09.620Z,1.72
2018-08-10T11:24:34.097Z,2.00
2018-08-10T11:27:58.595Z,2.22
2018-08-10T11:31:23.054Z,2.27
2018-08-10T11:34:47.494Z,2.05
2018-08-10T11:38:11.947Z,1.82
2018-08-10T11:41:36.450Z,1.70
2018-08-10T11:45:01.098Z,2.20
2018-08-10T11:48:25.504Z,2.10
2018-08-10T11:51:49.988Z,1.95
2018-08-10T11:55:15.290Z,1.77
2018-08-10T11:58:39.719Z,1.67
2018-08-10T12:02:04.228Z,1.40
2018-08-10T12:05:28.698Z,1.90
2018-08-10T12:08:53.114Z,2.00
2018-08-10T12:12:17.543Z,1.85
2018-08-10T12:15:42.023Z,1.62
2018-08-10T12:19:06.557Z,1.82
2018-08-10T12:22:31.016Z,1.95
2018-08-10T12:25:55.478Z,1.80
2018-08-10T12:29:19.978Z,1.67
2018-08-10T12:32:44.447Z,2.30
2018-08-10T12:36:09.749Z,1.60
2018-08-10T12:39:34.156Z,1.90
2018-08-10T12:42:58.584Z,2.12
2018-08-10T12:46:23.079Z,1.50
2018-08-10T12:49:47.503Z,2.42
2018-08-10T12:53:11.998Z,2.10
2018-08-10T12:56:36.452Z,2.00
2018-08-10T13:00:00.937Z,1.98
2018-08-10T13:03:25.404Z,1.72
2018-08-10T13:06:49.844Z,1.57
2018-08-10T13:10:14.266Z,1.95
2018-08-10T13:13:38.648Z,1.85
2018-08-10T13:17:03.096Z,1.70
2018-08-10T13:20:27.579Z,1.60
2018-08-10T13:23:52.194Z,1.67
2018-08-10T13:27:16.649Z,1.50
2018-08-10T13:30:41.148Z,1.27
2018-08-10T13:34:05.789Z,1.80
2018-08-10T13:37:30.354Z,2.10
2018-08-10T13:40:54.857Z,2.02
2018-08-10T13:44:19.313Z,1.95
2018-08-10T13:47:43.897Z,1.80
2018-08-10T13:51:08.452Z,1.60
2018-08-10T13:54:33.022Z,1.30
2018-08-10T13:57:57.608Z,1.50
2018-08-10T14:01:22.028Z,1.50
2018-08-10T14:04:46.458Z,1.42
2018-08-10T14:08:10.949Z,1.30
2018-08-10T14:11:35.592Z,2.17
2018-08-10T14:15:02.193Z,1.40
2018-08-10T14:18:26.639Z,1.37
2018-08-10T14:21:51.089Z,2.00
2018-08-10T14:25:15.553Z,1.57
2018-08-10T14:28:39.999Z,1.70
2018-08-10T14:32:04.444Z,1.47
2018-08-10T14:35:28.892Z,1.32
2018-08-10T14:38:53.399Z,1.25
2018-08-10T14:42:18.403Z,0.95
2018-08-10T14:45:42.868Z,1.50
2018-08-10T14:49:08.478Z,1.37
2018-08-10T14:52:32.934Z,1.00
2018-08-10T14:55:57.426Z,1.98
2018-08-10T14:59:21.912Z,1.22
2018-08-10T15:02:46.679Z,1.32
2018-08-10T15:06:11.038Z,1.20
2018-08-10T15:09:35.563Z,1.32
2018-08-10T15:13:00.105Z,1.47
2018-08-10T15:16:24.424Z,1.72
2018-08-10T15:19:48.877Z,1.52
2018-08-10T15:23:13.371Z,1.10
2018-08-10T15:26:38.112Z,1.87
2018-08-10T15:30:02.589Z,1.25
2018-08-10T15:33:27.187Z,1.52
2018-08-10T15:36:51.648Z,1.27
2018-08-10T15:40:19.357Z,1.50
2018-08-10T15:43:43.865Z,1.25
2018-08-10T15:47:08.379Z,1.20
2018-08-10T15:50:32.825Z,1.77
2018-08-10T15:53:57.280Z,1.92
2018-08-10T15:57:21.691Z,1.42
2018-08-10T16:00:46.127Z,1.22
2018-08-10T16:04:10.649Z,1.40
2018-08-10T16:07:35.039Z,2.17
2018-08-10T16:10:59.494Z,1.10
2018-08-10T16:14:23.992Z,1.17
2018-08-10T16:17:48.490Z,1.30
2018-08-10T16:21:13.037Z,1.15
2018-08-10T16:24:37.439Z,1.47
2018-08-10T16:28:01.928Z,1.10
2018-08-10T16:31:27.248Z,1.17
2018-08-10T16:34:51.669Z,1.15
2018-08-10T16:38:16.114Z,1.57
2018-08-10T16:41:40.589Z,1.50
2018-08-10T16:45:05.425Z,1.20
2018-08-10T16:48:29.837Z,1.17
2018-08-10T16:51:54.296Z,1.30
2018-08-10T16:55:19.907Z,1.65
2018-08-10T16:58:44.381Z,1.45
2018-08-10T17:02:09.924Z,1.07
2018-08-10T17:05:34.813Z,1.40
2018-08-10T17:08:59.288Z,1.10
2018-08-10T17:12:23.788Z,0.98
2018-08-10T17:15:48.327Z,1.35
2018-08-10T17:19:12.835Z,1.27
2018-08-10T17:22:37.270Z,1.25
2018-08-10T17:26:01.806Z,1.57
2018-08-10T17:29:26.296Z,1.40
2018-08-10T17:32:50.814Z,1.95
2018-08-10T17:36:15.266Z,1.50
2018-08-10T17:39:39.676Z,1.75
2018-08-10T17:43:04.260Z,2.08
2018-08-10T17:46:28.692Z,2.50
2018-08-10T17:49:53.187Z,2.02
2018-08-10T17:53:17.668Z,1.50
2018-08-10T17:56:42.113Z,1.40
2018-08-10T18:00:10.166Z,1.27
2018-08-10T18:03:34.618Z,1.82
2018-08-10T18:06:59.135Z,2.37
2018-08-10T18:10:23.692Z,4.03
2018-08-10T18:13:48.169Z,2.85
2018-08-10T18:17:12.637Z,2.52
2018-08-10T18:20:38.031Z,2.55
2018-08-10T18:24:02.491Z,1.07
2018-08-10T18:27:27.084Z,1.40
2018-08-10T18:30:51.543Z,2.05
2018-08-10T18:34:16.138Z,2.40
2018-08-10T18:37:41.545Z,1.60
2018-08-10T18:41:20.210Z,1.27
2018-08-10T18:44:45.335Z,2.22
2018-08-10T18:48:10.199Z,2.15
2018-08-10T18:51:34.689Z,1.55
2018-08-10T18:55:00.187Z,1.72
2018-08-10T18:58:25.386Z,1.50
2018-08-10T19:01:50.994Z,2.47
2018-08-10T19:05:16.741Z,1.77
2018-08-10T19:08:42.138Z,2.15
2018-08-10T19:12:07.352Z,1.25
2018-08-10T19:15:31.856Z,1.72
2018-08-10T19:18:56.440Z,1.42
2018-08-10T19:22:21.284Z,1.70
2018-08-10T19:25:46.196Z,1.30
2018-08-10T19:29:12.617Z,1.50
2018-08-10T19:32:37.078Z,1.40
2018-08-10T19:36:01.851Z,1.90
2018-08-10T19:39:26.988Z,1.65
2018-08-10T19:42:51.995Z,1.55
2018-08-10T19:46:16.800Z,1.82
2018-08-10T19:49:42.067Z,1.40
2018-08-10T19:53:06.661Z,1.67
2018-08-10T19:56:33.154Z,1.47
2018-08-10T19:59:58.166Z,2.00
2018-08-10T20:03:23.777Z,1.25
2018-08-10T20:06:49.501Z,1.42
2018-08-10T20:10:15.974Z,1.92
2018-08-10T20:13:41.343Z,1.40
2018-08-10T20:17:07.720Z,1.57
2018-08-10T20:20:32.608Z,1.52
2018-08-10T20:23:57.728Z,1.50
2018-08-10T20:27:22.430Z,1.42
2018-08-10T20:30:47.110Z,1.40
2018-08-10T20:34:13.114Z,1.62
2018-08-10T20:37:38.543Z,1.85
2018-08-10T20:41:04.039Z,2.15
2018-08-10T20:44:29.545Z,2.17
2018-08-10T20:47:54.285Z,1.80
2018-08-10T20:51:19.594Z,2.17
2018-08-10T20:54:48.001Z,2.10
2018-08-10T20:58:13.155Z,2.20
2018-08-10T21:01:38.955Z,1.60
2018-08-10T21:05:04.849Z,2.17
2018-08-10T21:08:29.702Z,1.50
2018-08-10T21:11:54.759Z,1.67
2018-08-10T21:15:20.993Z,2.30
2018-08-10T21:18:45.505Z,1.80
2018-08-10T21:22:10.188Z,2.20
2018-08-10T21:25:35.144Z,2.08
2018-08-10T21:29:00.192Z,2.25
2018-08-10T21:32:24.940Z,2.35
2018-08-10T21:35:49.452Z,2.10
2018-08-10T21:39:14.324Z,2.02
2018-08-10T21:42:40.402Z,2.00
2018-08-10T21:46:05.984Z,1.67
2018-08-10T21:49:30.509Z,2.22
2018-08-10T21:52:55.652Z,1.55
2018-08-10T21:56:20.420Z,1.65
2018-08-10T21:59:44.973Z,1.80
2018-08-10T22:03:10.726Z,1.85
2018-08-10T22:06:35.564Z,1.60
2018-08-10T22:10:00.497Z,1.55
2018-08-10T22:13:30.429Z,2.12
2018-08-10T22:17:00.039Z,2.42
2018-08-10T22:20:24.489Z,1.98
2018-08-10T22:23:48.999Z,2.02
2018-08-10T22:27:13.514Z,1.90
2018-08-10T22:30:38.080Z,1.95
2018-08-10T22:34:02.567Z,1.90
2018-08-10T22:37:27.052Z,1.75
2018-08-10T22:40:51.513Z,2.65
2018-08-10T22:44:15.987Z,2.30
2018-08-10T22:47:40.435Z,1.77
2018-08-10T22:51:04.980Z,1.92
2018-08-10T22:54:29.449Z,2.27
2018-08-10T22:57:53.994Z,2.67
2018-08-10T23:01:18.383Z,1.85
2018-08-10T23:04:44.067Z,1.92
2018-08-10T23:08:08.839Z,2.60
2018-08-10T23:11:33.304Z,3.25
2018-08-10T23:14:57.808Z,2.25
2018-08-10T23:18:22.307Z,1.90
2018-08-10T23:21:46.740Z,1.40
2018-08-10T23:25:13.622Z,2.50
2018-08-10T23:28:38.098Z,2.15
2018-08-10T23:32:02.593Z,1.62
2018-08-10T23:35:27.088Z,2.00
2018-08-10T23:38:51.474Z,1.80
2018-08-10T23:42:15.971Z,1.80
2018-08-10T23:45:40.354Z,2.02
2018-08-10T23:49:05.067Z,2.45
2018-08-10T23:52:29.490Z,1.90
2018-08-10T23:56:00.551Z,2.33
2018-08-10T23:59:25.220Z,3.00
